• Join FlightAware (Why Join?)
  • Login
  • US Flag 
01:14PM EST


 

Airport Tracker/Info


-or-


 

Live Flight TrackerFlight Track Log ✈ CHQ6153 ✈ 01-Jul-2013 ✈ CYUL - KJFK

Flight Track Log - Related Links

Times and Time Zones

All times are in EDT time to prevent confusion due to time zone crossing. See the CHQ6153 flight status page for this flight to view local times or setup timezone preferences in your user account.

Time Position Orientation Groundspeed Altitude Reporting Facility
EDT Latitude Longitude Course Direction KTS MPH feet Rate Location/Type
06:09AM 45.4914 -73.7278 173° South 456 525 1,500  Level Boston Center
06:10AM 45.5167 -73.6667 59° Northeast 190 219 3,600 2,100 Climbing Montreal Center
06:11AM 45.5167 -73.6000 90° East 210 242 5,800 2,100 Climbing Montreal Center
06:12AM 45.4500 -73.6333 199° South 230 265 7,900 2,100 Climbing Montreal Center
06:13AM 44.6600 -74.1294 173° South  Level FlightAware Approximate
06:13AM 45.4000 -73.6833 215° Southwest 240 276 10,000  Level Montreal Center
06:14AM 44.5626 -74.1132 173° South  Level FlightAware Approximate
06:14AM 45.3167 -73.7000 188° South 280 322 11,200  Level Montreal Center
06:15AM 45.2500 -73.7833 221° Southwest 300 345 12,900 1,680 Climbing Montreal Center
06:16AM 45.1667 -73.8333 203° Southwest 310 357 14,600 1,800 Climbing Montreal Center
06:17AM 45.0833 -73.8833 203° Southwest 310 357 16,600 1,800 Climbing Montreal Center
06:18AM 45.0000 -73.8833 180° South 310 357 18,200 1,560 Climbing Montreal Center
06:19AM 44.9167 -73.8667 172° South 310 357 19,800 1,440 Climbing Montreal Center
06:20AM 44.8167 -73.8667 180° South 320 368 21,100 1,200 Climbing Montreal Center
06:21AM 44.7333 -73.8667 180° South 330 380 22,200 1,140 Climbing Montreal Center
06:22AM 44.6333 -73.8833 187° South 340 391 23,400 1,200 Climbing Montreal Center
06:23AM 44.5500 -73.8833 180° South 340 391 24,600 1,200 Climbing Montreal Center
06:24AM 44.4500 -73.8667 173° South 340 391 25,800 1,140 Climbing Montreal Center
06:25AM 44.3667 -73.8667 180° South 340 391 26,900 1,080 Climbing Montreal Center
06:26AM 44.2667 -73.8667 180° South 330 380 28,000 540 Climbing Montreal Center
06:27AM 44.1667 -73.8667 180° South 340 391 28,000  Level Montreal Center
06:28AM 44.0667 -73.8500 173° South 370 426 28,000  Level Montreal Center
06:29AM 43.9667 -73.8500 180° South 380 437 28,000  Level Montreal Center
06:30AM 43.8500 -73.8667 186° South 390 449 28,000  Level Montreal Center
06:31AM 43.7333 -73.8333 168° South 390 449 28,000  Level Montreal Center
06:32AM 43.6333 -73.8500 187° South 400 460 28,000  Level Montreal Center
06:33AM 43.5167 -73.8500 180° South 410 472 28,000  Level Montreal Center
06:34AM 43.4167 -73.8500 180° South 410 472 28,000  Level Montreal Center
06:35AM 43.2878 -73.8519 181° South 406 467 28,000  Level Boston Center
06:36AM 43.1733 -73.8522 180° South 406 467 28,000  Level Boston Center
06:37AM 43.0586 -73.8494 179° South 411 473 28,000 -60 Level Boston Center
06:38AM 42.9439 -73.8497 180° South 416 479 27,900  Descending Boston Center
06:39AM 42.8272 -73.8442 178° South 421 484 28,000  Climbing Boston Center
06:40AM 42.7106 -73.8417 179° South 421 484 28,000  Level Boston Center
06:41AM 42.5856 -73.8444 181° South 410 472 28,000  Level Boston Center
06:42AM 42.4792 -73.8419 179° South 404 465 28,000  Level Boston Center
06:43AM 42.3625 -73.8367 178° South 416 479 28,000  Level Boston Center
06:44AM 42.2458 -73.8397 181° South 421 484 28,000  Level Boston Center
06:45AM 42.1292 -73.8342 178° South 421 484 28,000  Level Boston Center
06:46AM 42.0231 -73.8319 179° South 409 471 28,000  Level Boston Center
06:47AM 41.9019 -73.8319 180° South 382 440 28,000  Level Boston Center
06:48AM 41.8022 -73.8269 178° South 365 420 28,000 -960 Level Boston Center
06:51AM 41.6019 -73.8753 190° South 334 384 24,800 -1,680 Descending New York Center
06:52AM 41.5250 -73.9411 213° Southwest 310 357 22,500 -2,220 Descending New York Center
06:53AM 41.4567 -74.0042 215° Southwest 310 357 20,400 -1,320 Descending New York Center
06:54AM 41.3864 -74.0672 214° Southwest 310 357 20,000 -300 Descending New York Center
06:55AM 41.3158 -74.1272 213° Southwest 310 357 19,900  Descending New York Center
06:56AM 41.2475 -74.1844 212° Southwest 305 351 20,000  Climbing New York Center
06:57AM 41.1731 -74.2414 210° Southwest 305 351 20,000 -60 Level New York Center
06:58AM 41.0975 -74.2567 189° South 279 321 19,900 -540 Descending New York Center
06:59AM 41.0119 -74.1975 152° Southeast 279 321 19,000 -480 Descending New York Center
07:00AM 40.9167 -74.1333 153° Southeast 312 359 19,000  Level New York TRACON
07:01AM 40.8667 -74.0333 123° Southeast 333 383 19,000 -900 Level New York TRACON
07:02AM 40.8167 -73.9500 128° Southeast 322 371 17,200 -1,920 Descending New York TRACON
07:03AM 40.7333 -73.9500 180° South 282 325 15,200 -1,980 Descending New York TRACON
07:04AM 40.6667 -73.9333 169° South 292 336 13,500 -1,260 Descending New York TRACON
07:05AM 40.6000 -73.8833 150° Southeast 282 325 12,900 -960 Descending New York TRACON
07:05AM 40.5333 -73.8667 169° South 274 315 11,700 -1,620 Descending New York TRACON
07:06AM 40.4667 -73.8333 159° South 264 304 10,000 -1,740 Descending New York TRACON
07:07AM 40.4333 -73.7667 123° Southeast 292 336 8,400 -1,080 Descending New York TRACON
07:08AM 40.4333 -73.6667 90° East 269 310 8,000 -240 Descending New York TRACON
07:09AM 40.4500 -73.6000 72° East 267 307 8,000 -540 Level New York TRACON
07:10AM 40.5167 -73.5333 37° Northeast 266 306 7,000 -1,200 Descending New York TRACON
07:11AM 40.5833 -73.5000 21° North 264 304 5,600 -1,380 Descending New York TRACON
07:12AM 40.6500 -73.4500 30° Northeast 257 296 4,300 -900 Descending New York TRACON
07:13AM 40.7000 -73.4167 27° Northeast 253 291 4,000 -180 Descending New York TRACON
07:14AM 40.7667 -73.4333 349° North 240 276 4,000  Level New York TRACON
07:15AM 40.8000 -73.5000 303° West 214 246 4,000 -720 Level New York TRACON
07:16AM 40.8333 -73.5667 303° West 196 226 2,600 -1,080 Descending New York TRACON
07:17AM 40.8167 -73.6167 246° West 184 212 1,900 -360 Descending New York TRACON
07:18AM 40.7667 -73.6500 207° Southwest 174 200 2,000 60 Climbing New York TRACON